createdAt,value
2023-02-25T00:00:34.511Z,34.10
2023-02-25T00:03:01.874Z,30.70
2023-02-25T00:05:31.700Z,30.77
2023-02-25T00:07:59.723Z,30.13
2023-02-25T00:10:26.691Z,33.90
2023-02-25T00:12:53.435Z,31.30
2023-02-25T00:15:20.287Z,29.70
2023-02-25T00:17:50.256Z,31.60
2023-02-25T00:20:20.834Z,32.03
2023-02-25T00:22:47.602Z,30.63
2023-02-25T00:25:16.867Z,30.70
2023-02-25T00:27:44.319Z,30.67
2023-02-25T00:30:12.245Z,30.85
2023-02-25T00:32:39.718Z,33.10
2023-02-25T00:35:07.211Z,32.15
2023-02-25T00:37:33.956Z,33.13
2023-02-25T00:40:00.730Z,30.70
2023-02-25T00:42:27.484Z,31.42
2023-02-25T00:44:54.261Z,31.83
2023-02-25T00:47:21.127Z,29.83
2023-02-25T00:49:48.182Z,30.25
2023-02-25T00:52:15.485Z,33.45
2023-02-25T00:54:42.437Z,31.58
2023-02-25T00:57:09.747Z,29.67
2023-02-25T00:59:36.610Z,31.63
2023-02-25T01:02:03.357Z,30.00
2023-02-25T01:04:30.183Z,30.08
2023-02-25T01:06:57.094Z,35.15
2023-02-25T01:09:23.865Z,29.23
2023-02-25T01:11:51.007Z,28.08
2023-02-25T01:14:23.927Z,29.88
2023-02-25T01:16:51.480Z,29.63
2023-02-25T01:19:25.490Z,29.65
2023-02-25T01:21:55.419Z,31.70
2023-02-25T01:24:28.048Z,31.50
2023-02-25T01:26:57.559Z,32.28
2023-02-25T01:29:30.374Z,29.45
2023-02-25T01:32:00.094Z,31.60
2023-02-25T01:34:28.868Z,29.23
2023-02-25T01:36:56.702Z,27.88
2023-02-25T01:39:26.449Z,30.27
2023-02-25T01:41:55.850Z,26.92
2023-02-25T01:44:44.066Z,32.35
2023-02-25T01:47:20.803Z,29.83
2023-02-25T01:49:47.737Z,27.27
2023-02-25T01:52:21.283Z,31.20
2023-02-25T01:54:52.422Z,31.92
2023-02-25T01:57:20.973Z,34.63
2023-02-25T01:59:49.234Z,29.10
2023-02-25T02:02:20.565Z,31.15
2023-02-25T02:04:53.153Z,31.38
2023-02-25T02:07:21.676Z,27.02
2023-02-25T02:09:57.663Z,30.23
2023-02-25T02:12:31.663Z,28.50
2023-02-25T02:15:00.893Z,28.50
2023-02-25T02:17:38.743Z,27.33
2023-02-25T02:20:24.301Z,28.73
2023-02-25T02:23:03.886Z,28.05
2023-02-25T02:25:59.667Z,28.92
2023-02-25T02:29:12.197Z,29.63
2023-02-25T02:31:49.846Z,29.40
2023-02-25T02:34:40.045Z,29.55
2023-02-25T02:37:27.948Z,28.20
2023-02-25T02:40:19.641Z,29.80
2023-02-25T02:42:58.529Z,29.75
2023-02-25T02:45:50.559Z,28.00
2023-02-25T02:48:23.749Z,29.13
2023-02-25T02:51:01.216Z,29.20
2023-02-25T02:53:31.028Z,28.40
2023-02-25T02:56:01.796Z,28.13
2023-02-25T02:58:37.093Z,27.02
2023-02-25T03:01:09.761Z,29.00
2023-02-25T03:03:44.197Z,27.95
2023-02-25T03:06:16.017Z,29.50
2023-02-25T03:11:12.778Z,29.23
2023-02-25T03:13:40.108Z,25.52
2023-02-25T03:16:12.511Z,27.58
2023-02-25T03:18:44.310Z,29.35
2023-02-25T03:21:18.537Z,28.65
2023-02-25T03:23:47.860Z,26.73
2023-02-25T03:26:24.501Z,27.30
2023-02-25T03:28:52.142Z,28.58
2023-02-25T03:31:43.919Z,28.25
2023-02-25T03:34:16.271Z,28.13
2023-02-25T03:36:49.524Z,25.55
2023-02-25T03:39:20.615Z,28.55
2023-02-25T03:41:52.394Z,28.58
2023-02-25T03:44:33.891Z,27.30
2023-02-25T03:47:04.663Z,27.27
2023-02-25T03:49:38.026Z,25.75
2023-02-25T03:52:11.938Z,28.63
2023-02-25T03:54:38.739Z,27.83
2023-02-25T03:57:05.952Z,26.67
2023-02-25T03:59:32.717Z,27.23
2023-02-25T04:02:01.322Z,25.75
2023-02-25T04:04:28.371Z,25.83
2023-02-25T04:06:55.186Z,26.67
2023-02-25T04:09:21.915Z,27.17
2023-02-25T04:11:49.215Z,25.98
2023-02-25T04:14:17.082Z,25.42
2023-02-25T04:16:43.845Z,25.88
2023-02-25T04:19:10.629Z,24.65
2023-02-25T04:21:37.791Z,25.65
2023-02-25T04:24:06.863Z,27.90
2023-02-25T04:26:36.802Z,26.52
2023-02-25T04:29:04.116Z,24.42
2023-02-25T04:31:31.265Z,28.60
2023-02-25T04:33:58.348Z,25.00
2023-02-25T04:36:35.977Z,25.95
2023-02-25T04:39:05.465Z,27.30
2023-02-25T04:41:35.117Z,26.70
2023-02-25T04:44:05.680Z,26.95
2023-02-25T04:46:35.719Z,23.33
2023-02-25T04:49:03.306Z,24.65
2023-02-25T04:51:30.336Z,25.20
2023-02-25T04:53:57.082Z,24.63
2023-02-25T04:56:24.640Z,25.05
2023-02-25T04:58:51.798Z,25.45
2023-02-25T05:01:18.575Z,25.30
2023-02-25T05:03:45.402Z,26.00
2023-02-25T05:06:12.228Z,25.17
2023-02-25T05:08:39.137Z,24.58
2023-02-25T05:11:06.087Z,25.60
2023-02-25T05:13:32.881Z,26.10
2023-02-25T05:16:16.498Z,26.70
2023-02-25T05:18:45.577Z,24.63
2023-02-25T05:21:15.754Z,23.88
2023-02-25T05:23:44.010Z,23.77
2023-02-25T05:26:11.609Z,24.85
2023-02-25T05:28:38.635Z,24.60
2023-02-25T05:31:07.327Z,26.77
2023-02-25T05:33:35.608Z,22.98
2023-02-25T05:36:05.104Z,23.40
2023-02-25T05:38:31.881Z,25.30
2023-02-25T05:41:02.032Z,24.33
2023-02-25T05:43:29.190Z,25.63
2023-02-25T05:45:57.568Z,24.95
2023-02-25T05:48:24.533Z,22.98
2023-02-25T05:50:52.300Z,26.10
2023-02-25T05:53:20.006Z,23.90
2023-02-25T05:55:47.137Z,23.25
2023-02-25T05:58:13.894Z,23.90
2023-02-25T06:00:40.620Z,27.17
2023-02-25T06:03:07.508Z,22.58
2023-02-25T06:05:34.324Z,24.60
2023-02-25T06:08:01.207Z,21.65
2023-02-25T06:10:28.368Z,25.55
2023-02-25T06:12:55.148Z,21.60
2023-02-25T06:15:21.883Z,22.75
2023-02-25T06:17:49.835Z,22.35
2023-02-25T06:20:17.970Z,23.35
2023-02-25T06:22:44.787Z,23.17
2023-02-25T06:25:11.567Z,21.55
2023-02-25T06:27:38.325Z,23.60
2023-02-25T06:30:05.448Z,22.90
2023-02-25T06:32:32.437Z,22.77
2023-02-25T06:34:59.376Z,24.63
2023-02-25T06:37:26.183Z,19.90
2023-02-25T06:39:53.443Z,20.63
2023-02-25T06:42:20.326Z,21.35
2023-02-25T06:44:47.037Z,22.17
2023-02-25T06:47:13.934Z,21.80
2023-02-25T06:49:40.699Z,20.38
2023-02-25T06:52:07.507Z,21.48
2023-02-25T06:54:34.324Z,20.88
2023-02-25T06:57:01.032Z,21.35
2023-02-25T06:59:27.799Z,21.83
2023-02-25T07:01:54.551Z,20.48
2023-02-25T07:04:21.598Z,21.30
2023-02-25T07:06:48.438Z,20.15
2023-02-25T07:09:15.276Z,18.65
2023-02-25T07:11:42.024Z,20.45
2023-02-25T07:14:08.863Z,20.23
2023-02-25T07:16:38.269Z,21.85
2023-02-25T07:19:05.064Z,20.30
2023-02-25T07:21:31.929Z,18.92
2023-02-25T07:23:58.802Z,21.98
2023-02-25T07:26:28.480Z,21.20
2023-02-25T07:28:57.062Z,19.13
2023-02-25T07:31:24.836Z,18.13
2023-02-25T07:33:53.976Z,18.65
2023-02-25T07:36:20.800Z,20.30
2023-02-25T07:38:50.569Z,18.75
2023-02-25T07:41:19.222Z,17.67
2023-02-25T07:43:46.362Z,19.75
2023-02-25T07:46:13.614Z,19.40
2023-02-25T07:48:40.970Z,19.00
2023-02-25T07:51:18.591Z,19.73
2023-02-25T07:53:46.695Z,16.63
2023-02-25T07:56:14.497Z,19.10
2023-02-25T07:58:41.437Z,18.33
2023-02-25T08:01:16.505Z,17.17
2023-02-25T08:03:43.245Z,17.77
2023-02-25T08:06:09.963Z,16.83
2023-02-25T08:08:37.427Z,16.50
2023-02-25T08:11:12.203Z,16.25
2023-02-25T08:13:39.121Z,18.10
2023-02-25T08:16:09.206Z,17.85
2023-02-25T08:18:36.707Z,16.52
2023-02-25T08:21:04.635Z,16.48
2023-02-25T08:23:31.685Z,18.27
2023-02-25T08:25:59.023Z,17.80
2023-02-25T08:28:27.274Z,16.17
2023-02-25T08:30:54.732Z,17.67
2023-02-25T08:33:21.952Z,19.63
2023-02-25T08:35:48.787Z,16.05
2023-02-25T08:38:15.580Z,18.40
2023-02-25T08:40:43.193Z,18.38
2023-02-25T08:43:10.804Z,16.52
2023-02-25T08:45:39.167Z,18.60
2023-02-25T08:48:06.000Z,15.13
2023-02-25T08:50:32.740Z,15.60
2023-02-25T08:52:59.446Z,15.70
2023-02-25T08:55:26.309Z,15.32
2023-02-25T08:57:53.915Z,21.27
2023-02-25T09:00:21.466Z,14.43
2023-02-25T09:02:49.516Z,41.58
2023-02-25T09:05:18.259Z,14.85
2023-02-25T09:07:47.151Z,15.20
2023-02-25T09:10:13.949Z,14.35
2023-02-25T09:12:42.332Z,17.65
2023-02-25T09:15:10.958Z,15.93
2023-02-25T09:17:38.877Z,16.55
2023-02-25T09:20:07.321Z,14.20
2023-02-25T09:22:36.241Z,14.52
2023-02-25T09:25:04.417Z,15.85
2023-02-25T09:27:31.214Z,19.35
2023-02-25T09:29:58.042Z,15.30
2023-02-25T09:32:24.964Z,16.88
2023-02-25T09:34:52.776Z,14.52
2023-02-25T09:37:19.811Z,16.05
2023-02-25T09:39:46.760Z,15.57
2023-02-25T09:42:23.000Z,28.83
2023-02-25T09:44:53.571Z,16.17
2023-02-25T09:47:28.488Z,14.90
2023-02-25T09:50:04.607Z,14.15
2023-02-25T09:52:45.037Z,12.10
2023-02-25T09:55:23.695Z,16.42
2023-02-25T09:58:05.124Z,14.43
2023-02-25T10:00:37.331Z,15.30
2023-02-25T10:03:22.962Z,13.32
2023-02-25T10:06:04.952Z,13.13
2023-02-25T10:08:57.252Z,11.80
2023-02-25T10:14:06.592Z,12.77
2023-02-25T10:16:42.499Z,20.20
2023-02-25T10:19:20.417Z,13.52
2023-02-25T10:21:50.012Z,12.00
2023-02-25T10:24:30.592Z,13.57
2023-02-25T10:27:11.399Z,11.52
2023-02-25T10:29:52.676Z,11.88
2023-02-25T10:32:26.343Z,10.90
2023-02-25T10:34:58.051Z,11.57
2023-02-25T10:37:37.658Z,11.75
2023-02-25T10:40:10.969Z,18.40
2023-02-25T10:42:38.049Z,10.90
2023-02-25T10:45:13.781Z,12.20
2023-02-25T10:47:45.119Z,11.25
2023-02-25T10:50:14.989Z,10.48
2023-02-25T10:53:17.954Z,15.45
2023-02-25T10:55:46.894Z,12.27
2023-02-25T10:58:35.122Z,13.68
2023-02-25T11:01:14.016Z,11.95
2023-02-25T11:03:53.236Z,13.38
2023-02-25T11:06:25.072Z,11.07
2023-02-25T11:08:54.799Z,10.13
2023-02-25T11:11:29.186Z,10.27
2023-02-25T11:14:14.829Z,14.88
2023-02-25T11:16:44.552Z,10.98
2023-02-25T11:19:20.562Z,13.25
2023-02-25T11:21:48.083Z,11.75
2023-02-25T11:24:18.253Z,11.90
2023-02-25T11:26:48.105Z,12.52
2023-02-25T11:29:23.055Z,12.23
2023-02-25T11:31:58.612Z,13.23
2023-02-25T11:34:28.606Z,13.20
2023-02-25T11:36:55.410Z,11.88
2023-02-25T11:39:27.914Z,11.77
2023-02-25T11:42:18.063Z,9.40
2023-02-25T11:44:45.929Z,11.27
2023-02-25T11:47:30.728Z,10.90
2023-02-25T11:50:16.209Z,10.30
2023-02-25T11:52:51.658Z,8.32
2023-02-25T11:55:46.234Z,10.23
2023-02-25T11:58:18.678Z,11.80
2023-02-25T12:01:13.319Z,9.95
2023-02-25T12:04:07.880Z,11.55
2023-02-25T12:06:56.074Z,10.05
2023-02-25T12:09:31.569Z,11.73
2023-02-25T12:12:27.992Z,11.02
2023-02-25T12:15:19.806Z,9.45
2023-02-25T12:18:10.871Z,13.98
2023-02-25T12:21:03.438Z,12.45
2023-02-25T12:23:39.200Z,15.48
2023-02-25T12:26:06.650Z,10.00
2023-02-25T12:28:49.814Z,11.48
2023-02-25T12:31:50.433Z,15.32
2023-02-25T12:34:39.745Z,10.50
2023-02-25T12:37:18.642Z,11.35
2023-02-25T12:40:17.702Z,12.50
2023-02-25T12:43:13.716Z,12.50
2023-02-25T12:45:56.860Z,13.15
2023-02-25T12:48:41.967Z,15.13
2023-02-25T12:51:14.902Z,14.95
2023-02-25T12:54:21.388Z,12.55
2023-02-25T12:56:57.266Z,12.68
2023-02-25T13:00:06.021Z,11.98
2023-02-25T13:02:42.093Z,13.52
2023-02-25T13:05:37.080Z,14.65
2023-02-25T13:08:06.600Z,13.82
2023-02-25T13:11:04.349Z,13.30
2023-02-25T13:13:50.767Z,13.85
2023-02-25T13:16:54.551Z,15.63
2023-02-25T13:19:54.426Z,13.95
2023-02-25T13:22:39.581Z,16.50
2023-02-25T13:25:21.290Z,14.73
2023-02-25T13:28:06.886Z,14.32
2023-02-25T13:30:54.068Z,17.13
2023-02-25T13:33:42.428Z,14.98
2023-02-25T13:36:19.074Z,17.13
2023-02-25T13:38:55.087Z,16.20
2023-02-25T13:41:47.951Z,17.35
2023-02-25T13:44:45.375Z,15.75
2023-02-25T13:47:28.689Z,16.70
2023-02-25T13:50:28.970Z,16.73
2023-02-25T13:53:24.633Z,15.80
2023-02-25T13:56:28.424Z,18.98
2023-02-25T13:59:01.093Z,17.83
2023-02-25T14:02:04.041Z,17.13
2023-02-25T14:04:36.661Z,17.23
2023-02-25T14:07:29.546Z,18.60
2023-02-25T14:10:21.557Z,20.10
2023-02-25T14:13:13.717Z,19.77
2023-02-25T14:15:58.491Z,21.08
2023-02-25T14:18:25.232Z,23.05
2023-02-25T14:21:04.355Z,22.00
2023-02-25T14:24:13.484Z,26.40
2023-02-25T14:27:11.067Z,21.90
2023-02-25T14:30:15.090Z,23.27
2023-02-25T14:33:00.268Z,22.83
2023-02-25T14:35:33.315Z,23.33
2023-02-25T14:38:15.782Z,24.65
2023-02-25T14:40:53.371Z,25.83
2023-02-25T14:43:40.527Z,24.55
2023-02-25T14:46:40.426Z,24.27
2023-02-25T14:49:26.695Z,25.95
2023-02-25T14:52:12.053Z,22.73
2023-02-25T14:55:02.962Z,25.17
2023-02-25T14:57:36.661Z,24.67
2023-02-25T15:00:27.870Z,24.85
2023-02-25T15:03:06.701Z,41.58
2023-02-25T15:06:27.920Z,29.85
2023-02-25T15:09:13.360Z,25.15
2023-02-25T15:12:02.054Z,22.05
2023-02-25T15:14:40.945Z,23.83
2023-02-25T15:17:35.656Z,20.88
2023-02-25T15:20:09.847Z,20.33
2023-02-25T15:22:41.925Z,22.98
2023-02-25T15:25:20.636Z,23.05
2023-02-25T15:27:47.763Z,21.40
2023-02-25T15:30:21.240Z,23.92
2023-02-25T15:32:58.063Z,21.58
2023-02-25T15:35:37.066Z,26.33
2023-02-25T15:38:09.775Z,23.30
2023-02-25T15:40:55.355Z,25.33
2023-02-25T15:43:26.416Z,24.10
2023-02-25T15:46:08.394Z,24.17
2023-02-25T15:51:06.356Z,22.77
2023-02-25T15:53:39.760Z,23.95
2023-02-25T15:56:06.676Z,24.85
2023-02-25T15:58:33.392Z,25.08
2023-02-25T16:01:07.274Z,23.35
2023-02-25T16:03:36.898Z,21.35
2023-02-25T16:06:23.133Z,22.38
2023-02-25T16:09:04.289Z,23.58
2023-02-25T16:11:44.633Z,26.33
2023-02-25T16:14:33.770Z,25.17
2023-02-25T16:17:14.189Z,28.30
2023-02-25T16:19:41.994Z,23.23
2023-02-25T16:22:37.712Z,26.85
2023-02-25T16:25:06.320Z,24.05
2023-02-25T16:27:47.220Z,27.02
2023-02-25T16:30:44.501Z,24.40
2023-02-25T16:33:30.561Z,26.30
2023-02-25T16:36:10.512Z,25.45
2023-02-25T16:38:42.766Z,26.05
2023-02-25T16:41:11.627Z,25.02
2023-02-25T16:43:40.944Z,28.80
2023-02-25T16:46:12.866Z,24.60
2023-02-25T16:51:26.092Z,26.83
2023-02-25T16:54:06.425Z,24.20
2023-02-25T16:56:33.823Z,24.98
2023-02-25T16:59:05.992Z,29.38
2023-02-25T17:01:35.675Z,27.08
2023-02-25T17:04:19.952Z,24.15
2023-02-25T17:07:23.159Z,29.17
2023-02-25T17:09:51.933Z,25.80
2023-02-25T17:12:41.362Z,26.55
2023-02-25T17:15:19.682Z,30.63
2023-02-25T17:17:50.166Z,28.85
2023-02-25T17:20:24.401Z,30.02
2023-02-25T17:22:52.506Z,30.33
2023-02-25T17:25:22.836Z,28.65
2023-02-25T17:27:50.496Z,28.33
2023-02-25T17:30:37.917Z,31.42
2023-02-25T17:33:06.132Z,29.63
2023-02-25T17:35:35.640Z,29.92
2023-02-25T17:38:02.898Z,30.92
2023-02-25T17:40:30.087Z,30.75
2023-02-25T17:43:21.322Z,34.05
2023-02-25T17:46:16.580Z,34.60
2023-02-25T17:48:50.067Z,33.20
2023-02-25T17:51:17.074Z,35.63
2023-02-25T17:54:18.696Z,34.10
2023-02-25T17:56:46.653Z,33.28
2023-02-25T17:59:13.385Z,38.70
2023-02-25T18:01:53.320Z,42.45
2023-02-25T18:04:25.171Z,37.80
2023-02-25T18:06:55.432Z,37.78
2023-02-25T18:09:31.819Z,40.85
2023-02-25T18:12:02.225Z,39.63
2023-02-25T18:14:40.892Z,48.10
2023-02-25T18:17:23.542Z,47.20
2023-02-25T18:19:50.617Z,39.10
2023-02-25T18:23:02.238Z,41.95
2023-02-25T18:25:35.836Z,42.40
2023-02-25T18:28:04.824Z,41.72
2023-02-25T18:30:33.042Z,40.42
2023-02-25T18:33:00.262Z,45.13
2023-02-25T18:35:29.665Z,41.40
2023-02-25T18:37:57.590Z,45.30
2023-02-25T18:40:54.581Z,43.63
2023-02-25T18:43:24.315Z,43.65
2023-02-25T18:45:51.172Z,44.60
2023-02-25T18:48:19.834Z,44.03
2023-02-25T18:50:46.840Z,47.55
2023-02-25T18:53:24.528Z,46.35
2023-02-25T18:55:52.975Z,45.88
2023-02-25T18:58:21.865Z,46.88
2023-02-25T19:00:55.059Z,48.72
2023-02-25T19:03:33.427Z,49.70
2023-02-25T19:06:00.269Z,41.67
2023-02-25T19:08:27.126Z,44.83
2023-02-25T19:10:54.845Z,47.45
2023-02-25T19:13:35.063Z,42.47
2023-02-25T19:16:02.593Z,46.60
2023-02-25T19:18:29.558Z,52.40
2023-02-25T19:20:56.794Z,43.15
2023-02-25T19:23:23.588Z,44.25
2023-02-25T19:25:55.724Z,39.50
2023-02-25T19:28:22.930Z,37.10
2023-02-25T19:30:51.281Z,42.15
2023-02-25T19:33:20.429Z,36.08
2023-02-25T19:35:47.250Z,41.97
2023-02-25T19:38:19.047Z,37.03
2023-02-25T19:40:48.462Z,36.40
2023-02-25T19:43:16.688Z,36.17
2023-02-25T19:45:44.340Z,37.38
2023-02-25T19:48:11.626Z,41.08
2023-02-25T19:50:40.975Z,32.67
2023-02-25T19:53:07.955Z,34.83
2023-02-25T19:55:35.115Z,36.83
2023-02-25T19:58:02.261Z,32.70
2023-02-25T20:00:29.173Z,34.42
2023-02-25T20:02:56.358Z,37.05
2023-02-25T20:05:24.325Z,35.55
2023-02-25T20:07:51.429Z,35.90
2023-02-25T20:10:18.843Z,38.95
2023-02-25T20:12:47.712Z,37.20
2023-02-25T20:15:16.205Z,38.15
2023-02-25T20:17:45.177Z,34.10
2023-02-25T20:20:13.456Z,36.35
2023-02-25T20:22:40.830Z,34.05
2023-02-25T20:25:09.953Z,36.70
2023-02-25T20:27:39.219Z,32.60
2023-02-25T20:30:07.048Z,37.40
2023-02-25T20:32:34.401Z,35.15
2023-02-25T20:35:01.425Z,39.90
2023-02-25T20:37:31.896Z,33.65
2023-02-25T20:39:59.817Z,36.33
2023-02-25T20:42:30.126Z,33.92
2023-02-25T20:44:58.833Z,35.20
2023-02-25T20:47:37.270Z,37.58
2023-02-25T20:50:06.361Z,34.28
2023-02-25T20:52:33.330Z,33.13
2023-02-25T20:55:02.711Z,36.20
2023-02-25T20:57:30.515Z,34.08
2023-02-25T20:59:57.271Z,36.30
2023-02-25T21:02:24.267Z,33.63
2023-02-25T21:04:52.010Z,36.45
2023-02-25T21:07:18.969Z,36.28
2023-02-25T21:09:45.868Z,34.75
2023-02-25T21:12:12.735Z,36.33
2023-02-25T21:14:39.518Z,36.58
2023-02-25T21:17:09.550Z,35.50
2023-02-25T21:19:38.707Z,33.97
2023-02-25T21:22:06.915Z,36.95
2023-02-25T21:24:34.641Z,41.08
2023-02-25T21:27:02.070Z,36.38
2023-02-25T21:29:29.257Z,38.25
2023-02-25T21:31:56.723Z,38.97
2023-02-25T21:34:23.546Z,36.22
2023-02-25T21:36:50.343Z,36.65
2023-02-25T21:39:17.086Z,39.08
2023-02-25T21:41:45.067Z,37.97
2023-02-25T21:44:12.612Z,37.13
2023-02-25T21:46:40.005Z,40.72
2023-02-25T21:49:06.795Z,41.08
2023-02-25T21:51:33.876Z,36.72
2023-02-25T21:54:01.547Z,38.67
2023-02-25T21:56:29.711Z,38.58
2023-02-25T21:58:59.103Z,39.67
2023-02-25T22:01:29.621Z,40.63
2023-02-25T22:03:56.517Z,37.83
2023-02-25T22:06:24.402Z,39.25
2023-02-25T22:08:52.542Z,39.95
2023-02-25T22:11:22.769Z,39.17
2023-02-25T22:13:50.707Z,44.65
2023-02-25T22:16:18.244Z,44.42
2023-02-25T22:18:45.838Z,45.45
2023-02-25T22:21:15.652Z,46.03
2023-02-25T22:23:43.566Z,46.42
2023-02-25T22:26:13.591Z,51.40
2023-02-25T22:28:41.183Z,45.70
2023-02-25T22:31:16.449Z,48.03
2023-02-25T22:33:44.587Z,49.20
2023-02-25T22:36:13.520Z,42.92
2023-02-25T22:38:42.079Z,44.80
2023-02-25T22:41:18.120Z,48.03
2023-02-25T22:43:45.618Z,51.22
2023-02-25T22:46:21.617Z,45.70
2023-02-25T22:48:49.743Z,48.97
2023-02-25T22:51:21.613Z,42.47
2023-02-25T22:56:15.326Z,45.17
2023-02-25T22:58:42.233Z,44.28
2023-02-25T23:01:11.452Z,48.75
2023-02-25T23:03:43.758Z,43.60
2023-02-25T23:06:11.670Z,41.85
2023-02-25T23:08:39.327Z,43.30
2023-02-25T23:11:22.293Z,40.80
2023-02-25T23:13:52.490Z,43.92
2023-02-25T23:16:23.884Z,39.00
2023-02-25T23:18:51.996Z,39.58
2023-02-25T23:21:20.101Z,38.75
2023-02-25T23:23:48.735Z,38.22
2023-02-25T23:26:18.525Z,39.08
2023-02-25T23:28:46.335Z,36.55
2023-02-25T23:31:25.824Z,37.95
2023-02-25T23:34:05.610Z,37.38
2023-02-25T23:36:32.408Z,40.85
2023-02-25T23:39:00.626Z,39.67
2023-02-25T23:41:28.611Z,40.28
2023-02-25T23:43:57.601Z,39.78
2023-02-25T23:46:26.631Z,37.70
2023-02-25T23:48:57.930Z,36.95
2023-02-25T23:51:25.715Z,37.97
2023-02-25T23:53:54.497Z,37.90
2023-02-25T23:56:22.408Z,37.50
2023-02-25T23:58:50.773Z,37.88
